Portada
METAR-TAF:

METAR-TAF

Aeroports :

Kerteh, Malàisia

latitud: 04-32-15N, longitud: 103-25-36E, altitud: 5 m

Observació

L'informe es va fer fa 1 hora i 14 minuts, a les 00:00 UTC
Vent calma
Temperatura 26°C
Humitat 94%
Pressió 1011 hPa
Visibilitat 10 km o més
Escasses núvols a una alçada de 500 ft
Núvols disperses a una alçada de 14000 ft
Cel ennuvolat a una alçada de 25000 ft

METAR: WMKE 240000Z 00000KT 9999 FEW005 SCT140 BKN250 26/25 Q1011

Hora: 09:14 (01:14 UTC)

Pronòstic

L'informe es va fer fa 2 hores i 14 minuts, a les 23:00 UTC
Pronòstic vàlid del 24 a les 00 UTC al 25 a les 00 UTC
Vent 5 kt del Sud
Visibilitat 10 km o més
Escasses núvols a una alçada de 1400 ft
Núvols disperses a una alçada de 14000 ft
Cel ennuvolat a una alçada de 26000 ft
Evolucionant progressivament
l' 24 a les 12 UTC al 24 a les 14 UTC
Vent 3 kt amb direcció variable

TAF: WMKE 232300Z 2400/2500 18005KT 9999 FEW014 SCT140 BKN260 BECMG 2412/2414 VRB03KT

Observacions i pronòstics meteorològics de més de 4000 aeroports (METAR i TAF).

Les estacions disponibles són els punts grocs i vermells al mapa.

Posi el ratolí al punt desitjat per veure el nom de l'estació.

Feu clic per veure les observacions i els pronòstics meteorològics.

Per canviar el mapa: feu clic els botons verds amb una creu de color negre per apropar; al botó verd amb un guió per allunyar la imatge; o en les fletxes verdes per a mapes adjacents.


METAR-TAF: